sensor_id;sensor_type;location;lat;lon;timestamp;P1;durP1;ratioP1;P2;durP2;ratioP2
24008;SDS011;12217;50.792;4.372;2023-11-21T00:02:20;58.97;;;31.17;;
24008;SDS011;12217;50.792;4.372;2023-11-21T00:04:47;57.60;;;31.23;;
24008;SDS011;12217;50.792;4.372;2023-11-21T00:07:13;57.03;;;31.85;;
24008;SDS011;12217;50.792;4.372;2023-11-21T00:09:39;56.10;;;30.45;;
24008;SDS011;12217;50.792;4.372;2023-11-21T00:12:06;57.05;;;30.55;;
24008;SDS011;12217;50.792;4.372;2023-11-21T00:14:35;51.08;;;29.70;;
24008;SDS011;12217;50.792;4.372;2023-11-21T00:17:01;56.50;;;29.50;;
24008;SDS011;12217;50.792;4.372;2023-11-21T00:19:27;59.63;;;30.58;;
24008;SDS011;12217;50.792;4.372;2023-11-21T00:21:53;57.40;;;31.15;;
24008;SDS011;12217;50.792;4.372;2023-11-21T00:24:19;54.88;;;30.73;;
24008;SDS011;12217;50.792;4.372;2023-11-21T00:26:44;60.50;;;30.55;;
24008;SDS011;12217;50.792;4.372;2023-11-21T00:29:10;55.88;;;31.67;;
24008;SDS011;12217;50.792;4.372;2023-11-21T00:31:35;54.45;;;31.30;;
24008;SDS011;12217;50.792;4.372;2023-11-21T00:34:02;56.75;;;31.65;;
24008;SDS011;12217;50.792;4.372;2023-11-21T00:36:30;55.55;;;30.02;;
24008;SDS011;12217;50.792;4.372;2023-11-21T00:38:56;59.15;;;30.92;;
24008;SDS011;12217;50.792;4.372;2023-11-21T00:41:22;54.33;;;31.25;;
24008;SDS011;12217;50.792;4.372;2023-11-21T00:43:49;55.33;;;30.45;;
24008;SDS011;12217;50.792;4.372;2023-11-21T00:46:15;60.30;;;30.95;;
24008;SDS011;12217;50.792;4.372;2023-11-21T00:48:41;56.05;;;31.00;;
24008;SDS011;12217;50.792;4.372;2023-11-21T00:51:06;58.35;;;31.10;;
24008;SDS011;12217;50.792;4.372;2023-11-21T00:53:32;58.90;;;31.85;;
24008;SDS011;12217;50.792;4.372;2023-11-21T00:55:58;54.30;;;31.15;;
24008;SDS011;12217;50.792;4.372;2023-11-21T00:58:24;55.20;;;29.70;;
24008;SDS011;12217;50.792;4.372;2023-11-21T01:00:50;53.78;;;30.10;;
24008;SDS011;12217;50.792;4.372;2023-11-21T01:03:15;55.95;;;31.63;;
24008;SDS011;12217;50.792;4.372;2023-11-21T01:05:41;55.83;;;31.17;;
24008;SDS011;12217;50.792;4.372;2023-11-21T01:08:06;54.63;;;29.85;;
24008;SDS011;12217;50.792;4.372;2023-11-21T01:10:32;56.05;;;30.85;;
24008;SDS011;12217;50.792;4.372;2023-11-21T01:12:59;49.47;;;29.60;;
24008;SDS011;12217;50.792;4.372;2023-11-21T01:15:25;52.10;;;28.35;;
24008;SDS011;12217;50.792;4.372;2023-11-21T01:17:53;51.13;;;29.27;;
24008;SDS011;12217;50.792;4.372;2023-11-21T01:20:19;49.08;;;28.58;;
24008;SDS011;12217;50.792;4.372;2023-11-21T01:22:45;46.38;;;27.38;;
24008;SDS011;12217;50.792;4.372;2023-11-21T01:25:14;51.03;;;28.73;;
24008;SDS011;12217;50.792;4.372;2023-11-21T01:27:41;52.60;;;29.10;;
24008;SDS011;12217;50.792;4.372;2023-11-21T01:30:08;50.25;;;30.25;;
24008;SDS011;12217;50.792;4.372;2023-11-21T01:32:37;51.25;;;29.48;;
24008;SDS011;12217;50.792;4.372;2023-11-21T01:35:03;49.83;;;29.13;;
24008;SDS011;12217;50.792;4.372;2023-11-21T01:37:31;49.58;;;29.65;;
24008;SDS011;12217;50.792;4.372;2023-11-21T01:39:56;45.53;;;27.65;;
24008;SDS011;12217;50.792;4.372;2023-11-21T01:42:22;42.22;;;27.38;;
24008;SDS011;12217;50.792;4.372;2023-11-21T01:44:48;46.55;;;27.65;;
24008;SDS011;12217;50.792;4.372;2023-11-21T01:47:14;49.35;;;27.83;;
24008;SDS011;12217;50.792;4.372;2023-11-21T01:49:40;42.83;;;26.73;;
24008;SDS011;12217;50.792;4.372;2023-11-21T01:52:09;49.72;;;28.77;;
24008;SDS011;12217;50.792;4.372;2023-11-21T01:54:36;42.40;;;27.50;;
24008;SDS011;12217;50.792;4.372;2023-11-21T01:57:03;42.78;;;26.50;;
24008;SDS011;12217;50.792;4.372;2023-11-21T01:59:35;46.58;;;27.55;;
24008;SDS011;12217;50.792;4.372;2023-11-21T02:02:02;42.35;;;25.92;;
24008;SDS011;12217;50.792;4.372;2023-11-21T02:04:32;44.20;;;26.63;;
24008;SDS011;12217;50.792;4.372;2023-11-21T02:06:58;42.10;;;26.50;;
24008;SDS011;12217;50.792;4.372;2023-11-21T02:09:25;42.47;;;26.23;;
24008;SDS011;12217;50.792;4.372;2023-11-21T02:11:52;43.58;;;27.30;;
24008;SDS011;12217;50.792;4.372;2023-11-21T02:14:21;48.35;;;27.08;;
24008;SDS011;12217;50.792;4.372;2023-11-21T02:16:47;45.92;;;28.58;;
24008;SDS011;12217;50.792;4.372;2023-11-21T02:19:19;41.17;;;26.10;;
24008;SDS011;12217;50.792;4.372;2023-11-21T02:21:50;45.15;;;27.83;;
24008;SDS011;12217;50.792;4.372;2023-11-21T02:24:18;48.50;;;28.15;;
24008;SDS011;12217;50.792;4.372;2023-11-21T02:26:47;48.13;;;29.63;;
24008;SDS011;12217;50.792;4.372;2023-11-21T02:29:16;50.15;;;29.15;;
24008;SDS011;12217;50.792;4.372;2023-11-21T02:31:47;51.15;;;29.13;;
24008;SDS011;12217;50.792;4.372;2023-11-21T02:34:17;51.80;;;29.75;;
24008;SDS011;12217;50.792;4.372;2023-11-21T02:36:43;50.38;;;30.02;;
24008;SDS011;12217;50.792;4.372;2023-11-21T02:39:10;51.72;;;29.98;;
24008;SDS011;12217;50.792;4.372;2023-11-21T02:41:37;51.05;;;29.98;;
24008;SDS011;12217;50.792;4.372;2023-11-21T02:44:04;49.58;;;29.70;;
24008;SDS011;12217;50.792;4.372;2023-11-21T02:46:31;47.30;;;30.13;;
24008;SDS011;12217;50.792;4.372;2023-11-21T02:48:58;47.13;;;29.17;;
24008;SDS011;12217;50.792;4.372;2023-11-21T02:51:35;48.75;;;30.45;;
24008;SDS011;12217;50.792;4.372;2023-11-21T02:54:01;52.67;;;32.20;;
24008;SDS011;12217;50.792;4.372;2023-11-21T02:56:31;56.63;;;32.53;;
24008;SDS011;12217;50.792;4.372;2023-11-21T02:58:59;51.83;;;32.05;;
24008;SDS011;12217;50.792;4.372;2023-11-21T03:01:25;56.63;;;33.53;;
24008;SDS011;12217;50.792;4.372;2023-11-21T03:03:51;48.92;;;31.67;;
24008;SDS011;12217;50.792;4.372;2023-11-21T03:06:20;52.05;;;32.13;;
24008;SDS011;12217;50.792;4.372;2023-11-21T03:08:46;48.88;;;30.67;;
24008;SDS011;12217;50.792;4.372;2023-11-21T03:11:12;50.30;;;30.33;;
24008;SDS011;12217;50.792;4.372;2023-11-21T03:13:38;53.42;;;30.30;;
24008;SDS011;12217;50.792;4.372;2023-11-21T03:16:06;48.08;;;29.92;;
24008;SDS011;12217;50.792;4.372;2023-11-21T03:18:36;47.10;;;28.48;;
24008;SDS011;12217;50.792;4.372;2023-11-21T03:21:02;48.55;;;28.58;;
24008;SDS011;12217;50.792;4.372;2023-11-21T03:23:28;47.38;;;28.45;;
24008;SDS011;12217;50.792;4.372;2023-11-21T03:25:54;46.58;;;28.23;;
24008;SDS011;12217;50.792;4.372;2023-11-21T03:28:19;49.38;;;28.55;;
24008;SDS011;12217;50.792;4.372;2023-11-21T03:30:45;46.75;;;27.38;;
24008;SDS011;12217;50.792;4.372;2023-11-21T03:33:10;44.05;;;26.98;;
24008;SDS011;12217;50.792;4.372;2023-11-21T03:35:37;38.80;;;26.50;;
24008;SDS011;12217;50.792;4.372;2023-11-21T03:38:03;44.88;;;28.48;;
24008;SDS011;12217;50.792;4.372;2023-11-21T03:40:29;48.75;;;27.95;;
24008;SDS011;12217;50.792;4.372;2023-11-21T03:42:56;39.90;;;27.60;;
24008;SDS011;12217;50.792;4.372;2023-11-21T03:45:22;42.28;;;27.23;;
24008;SDS011;12217;50.792;4.372;2023-11-21T03:47:48;45.45;;;27.65;;
24008;SDS011;12217;50.792;4.372;2023-11-21T03:50:13;46.33;;;27.55;;
24008;SDS011;12217;50.792;4.372;2023-11-21T03:52:39;41.55;;;27.38;;
24008;SDS011;12217;50.792;4.372;2023-11-21T03:55:04;42.85;;;27.35;;
24008;SDS011;12217;50.792;4.372;2023-11-21T03:57:30;43.28;;;28.33;;
24008;SDS011;12217;50.792;4.372;2023-11-21T03:59:56;42.35;;;27.33;;
24008;SDS011;12217;50.792;4.372;2023-11-21T04:02:21;44.95;;;28.77;;
24008;SDS011;12217;50.792;4.372;2023-11-21T04:04:47;46.53;;;27.48;;
24008;SDS011;12217;50.792;4.372;2023-11-21T04:07:12;42.97;;;28.25;;
24008;SDS011;12217;50.792;4.372;2023-11-21T04:09:38;43.35;;;28.75;;
24008;SDS011;12217;50.792;4.372;2023-11-21T04:12:06;47.25;;;29.73;;
24008;SDS011;12217;50.792;4.372;2023-11-21T04:14:33;47.03;;;29.50;;
24008;SDS011;12217;50.792;4.372;2023-11-21T04:16:59;43.50;;;28.75;;
24008;SDS011;12217;50.792;4.372;2023-11-21T04:19:25;49.55;;;30.75;;
24008;SDS011;12217;50.792;4.372;2023-11-21T04:21:50;48.20;;;29.95;;
24008;SDS011;12217;50.792;4.372;2023-11-21T04:24:16;48.38;;;29.63;;
24008;SDS011;12217;50.792;4.372;2023-11-21T04:26:43;48.35;;;30.48;;
24008;SDS011;12217;50.792;4.372;2023-11-21T04:29:08;48.50;;;31.00;;
24008;SDS011;12217;50.792;4.372;2023-11-21T04:31:34;50.15;;;30.52;;
24008;SDS011;12217;50.792;4.372;2023-11-21T04:34:00;43.58;;;29.58;;
24008;SDS011;12217;50.792;4.372;2023-11-21T04:36:26;47.38;;;28.95;;
24008;SDS011;12217;50.792;4.372;2023-11-21T04:38:51;41.28;;;29.05;;
24008;SDS011;12217;50.792;4.372;2023-11-21T04:41:17;46.45;;;29.80;;
24008;SDS011;12217;50.792;4.372;2023-11-21T04:43:43;49.25;;;30.58;;
24008;SDS011;12217;50.792;4.372;2023-11-21T04:46:08;44.85;;;30.95;;
24008;SDS011;12217;50.792;4.372;2023-11-21T04:48:34;44.22;;;29.65;;
24008;SDS011;12217;50.792;4.372;2023-11-21T04:51:00;47.67;;;31.52;;
24008;SDS011;12217;50.792;4.372;2023-11-21T04:53:25;48.17;;;30.23;;
24008;SDS011;12217;50.792;4.372;2023-11-21T04:55:51;47.00;;;31.25;;
24008;SDS011;12217;50.792;4.372;2023-11-21T04:58:17;48.65;;;30.52;;
24008;SDS011;12217;50.792;4.372;2023-11-21T05:00:43;45.05;;;30.48;;
24008;SDS011;12217;50.792;4.372;2023-11-21T05:03:09;46.13;;;30.95;;
24008;SDS011;12217;50.792;4.372;2023-11-21T05:05:34;45.17;;;31.15;;
24008;SDS011;12217;50.792;4.372;2023-11-21T05:08:00;45.90;;;31.73;;
24008;SDS011;12217;50.792;4.372;2023-11-21T05:10:26;50.80;;;32.28;;
24008;SDS011;12217;50.792;4.372;2023-11-21T05:12:52;49.78;;;31.88;;
24008;SDS011;12217;50.792;4.372;2023-11-21T05:15:17;49.22;;;31.30;;
24008;SDS011;12217;50.792;4.372;2023-11-21T05:17:43;52.83;;;32.97;;
24008;SDS011;12217;50.792;4.372;2023-11-21T05:20:10;50.33;;;32.38;;
24008;SDS011;12217;50.792;4.372;2023-11-21T05:22:38;48.67;;;31.70;;
24008;SDS011;12217;50.792;4.372;2023-11-21T05:25:05;50.75;;;33.03;;
24008;SDS011;12217;50.792;4.372;2023-11-21T05:27:33;45.30;;;30.23;;
24008;SDS011;12217;50.792;4.372;2023-11-21T05:29:59;43.35;;;30.40;;
24008;SDS011;12217;50.792;4.372;2023-11-21T05:32:32;47.83;;;32.58;;
24008;SDS011;12217;50.792;4.372;2023-11-21T05:34:58;48.13;;;31.77;;
24008;SDS011;12217;50.792;4.372;2023-11-21T05:37:24;47.08;;;30.33;;
24008;SDS011;12217;50.792;4.372;2023-11-21T05:39:52;47.35;;;30.85;;
24008;SDS011;12217;50.792;4.372;2023-11-21T05:42:18;50.38;;;31.52;;
24008;SDS011;12217;50.792;4.372;2023-11-21T05:44:44;45.88;;;31.13;;
24008;SDS011;12217;50.792;4.372;2023-11-21T05:47:10;46.38;;;30.05;;
24008;SDS011;12217;50.792;4.372;2023-11-21T05:49:35;42.58;;;29.60;;
24008;SDS011;12217;50.792;4.372;2023-11-21T05:52:02;44.10;;;30.08;;
24008;SDS011;12217;50.792;4.372;2023-11-21T05:54:28;47.50;;;30.17;;
24008;SDS011;12217;50.792;4.372;2023-11-21T05:56:53;42.22;;;29.33;;
24008;SDS011;12217;50.792;4.372;2023-11-21T05:59:19;43.47;;;30.15;;
24008;SDS011;12217;50.792;4.372;2023-11-21T06:01:45;46.72;;;31.63;;
24008;SDS011;12217;50.792;4.372;2023-11-21T06:04:11;42.80;;;30.00;;
24008;SDS011;12217;50.792;4.372;2023-11-21T06:06:38;45.72;;;30.70;;
24008;SDS011;12217;50.792;4.372;2023-11-21T06:09:04;44.13;;;30.67;;
24008;SDS011;12217;50.792;4.372;2023-11-21T06:11:31;47.47;;;32.15;;
24008;SDS011;12217;50.792;4.372;2023-11-21T06:13:57;39.03;;;29.00;;
24008;SDS011;12217;50.792;4.372;2023-11-21T06:16:23;48.92;;;31.13;;
24008;SDS011;12217;50.792;4.372;2023-11-21T06:18:49;44.70;;;31.00;;
24008;SDS011;12217;50.792;4.372;2023-11-21T06:21:15;45.40;;;29.67;;
24008;SDS011;12217;50.792;4.372;2023-11-21T06:23:41;47.35;;;29.17;;
24008;SDS011;12217;50.792;4.372;2023-11-21T06:26:07;41.90;;;30.70;;
24008;SDS011;12217;50.792;4.372;2023-11-21T06:28:34;43.25;;;30.15;;
24008;SDS011;12217;50.792;4.372;2023-11-21T06:31:01;40.75;;;30.20;;
24008;SDS011;12217;50.792;4.372;2023-11-21T06:33:33;44.25;;;30.52;;
24008;SDS011;12217;50.792;4.372;2023-11-21T06:35:59;49.45;;;30.92;;
24008;SDS011;12217;50.792;4.372;2023-11-21T06:38:28;43.60;;;30.05;;
24008;SDS011;12217;50.792;4.372;2023-11-21T06:40:55;44.53;;;29.52;;
24008;SDS011;12217;50.792;4.372;2023-11-21T06:43:21;44.63;;;29.63;;
24008;SDS011;12217;50.792;4.372;2023-11-21T06:45:47;50.22;;;30.25;;
24008;SDS011;12217;50.792;4.372;2023-11-21T06:48:13;47.65;;;30.02;;
24008;SDS011;12217;50.792;4.372;2023-11-21T06:50:39;45.85;;;29.15;;
24008;SDS011;12217;50.792;4.372;2023-11-21T06:53:04;47.75;;;30.20;;
24008;SDS011;12217;50.792;4.372;2023-11-21T06:55:32;48.80;;;31.70;;
24008;SDS011;12217;50.792;4.372;2023-11-21T06:57:58;48.47;;;30.08;;
24008;SDS011;12217;50.792;4.372;2023-11-21T07:00:25;45.88;;;29.65;;
24008;SDS011;12217;50.792;4.372;2023-11-21T07:02:53;49.83;;;30.42;;
24008;SDS011;12217;50.792;4.372;2023-11-21T07:05:19;44.78;;;30.45;;
24008;SDS011;12217;50.792;4.372;2023-11-21T07:07:46;48.72;;;30.13;;
24008;SDS011;12217;50.792;4.372;2023-11-21T07:10:13;50.13;;;30.88;;
24008;SDS011;12217;50.792;4.372;2023-11-21T07:12:39;45.33;;;30.52;;
24008;SDS011;12217;50.792;4.372;2023-11-21T07:15:05;50.92;;;31.15;;
24008;SDS011;12217;50.792;4.372;2023-11-21T07:17:34;43.45;;;29.60;;
24008;SDS011;12217;50.792;4.372;2023-11-21T07:20:00;49.15;;;30.60;;
24008;SDS011;12217;50.792;4.372;2023-11-21T07:22:29;47.45;;;30.70;;
24008;SDS011;12217;50.792;4.372;2023-11-21T07:24:55;48.55;;;31.60;;
24008;SDS011;12217;50.792;4.372;2023-11-21T07:27:21;46.75;;;30.63;;
24008;SDS011;12217;50.792;4.372;2023-11-21T07:29:47;47.38;;;32.53;;
24008;SDS011;12217;50.792;4.372;2023-11-21T07:32:13;48.63;;;31.08;;
24008;SDS011;12217;50.792;4.372;2023-11-21T07:34:39;49.20;;;32.65;;
24008;SDS011;12217;50.792;4.372;2023-11-21T07:37:06;54.70;;;32.80;;
24008;SDS011;12217;50.792;4.372;2023-11-21T07:39:33;50.38;;;31.65;;
24008;SDS011;12217;50.792;4.372;2023-11-21T07:42:00;50.97;;;32.92;;
24008;SDS011;12217;50.792;4.372;2023-11-21T07:44:27;53.50;;;32.85;;
24008;SDS011;12217;50.792;4.372;2023-11-21T07:46:53;54.55;;;33.78;;
24008;SDS011;12217;50.792;4.372;2023-11-21T07:49:22;53.58;;;33.10;;
24008;SDS011;12217;50.792;4.372;2023-11-21T07:51:51;62.45;;;35.80;;
24008;SDS011;12217;50.792;4.372;2023-11-21T07:54:17;66.03;;;35.67;;
24008;SDS011;12217;50.792;4.372;2023-11-21T07:56:43;61.88;;;35.20;;
24008;SDS011;12217;50.792;4.372;2023-11-21T07:59:09;68.20;;;36.20;;
24008;SDS011;12217;50.792;4.372;2023-11-21T08:01:34;62.65;;;35.70;;
24008;SDS011;12217;50.792;4.372;2023-11-21T08:04:00;60.47;;;34.72;;
24008;SDS011;12217;50.792;4.372;2023-11-21T08:06:28;59.70;;;34.80;;
24008;SDS011;12217;50.792;4.372;2023-11-21T08:08:55;65.03;;;34.92;;
24008;SDS011;12217;50.792;4.372;2023-11-21T08:11:21;61.20;;;35.50;;
24008;SDS011;12217;50.792;4.372;2023-11-21T08:13:47;67.03;;;36.08;;
24008;SDS011;12217;50.792;4.372;2023-11-21T08:16:12;61.95;;;34.25;;
24008;SDS011;12217;50.792;4.372;2023-11-21T08:18:38;64.97;;;36.85;;
24008;SDS011;12217;50.792;4.372;2023-11-21T08:21:05;67.13;;;35.47;;
24008;SDS011;12217;50.792;4.372;2023-11-21T08:23:30;66.00;;;36.15;;
24008;SDS011;12217;50.792;4.372;2023-11-21T08:25:56;67.45;;;36.58;;
24008;SDS011;12217;50.792;4.372;2023-11-21T08:28:22;65.10;;;35.75;;
24008;SDS011;12217;50.792;4.372;2023-11-21T08:30:51;69.68;;;37.00;;
24008;SDS011;12217;50.792;4.372;2023-11-21T08:33:17;67.35;;;36.95;;
24008;SDS011;12217;50.792;4.372;2023-11-21T08:35:43;67.50;;;36.65;;
24008;SDS011;12217;50.792;4.372;2023-11-21T08:38:09;63.45;;;34.97;;
24008;SDS011;12217;50.792;4.372;2023-11-21T08:40:35;67.47;;;36.83;;
24008;SDS011;12217;50.792;4.372;2023-11-21T08:43:01;71.30;;;37.85;;
24008;SDS011;12217;50.792;4.372;2023-11-21T08:45:29;64.03;;;35.70;;
24008;SDS011;12217;50.792;4.372;2023-11-21T08:47:55;70.15;;;36.85;;
24008;SDS011;12217;50.792;4.372;2023-11-21T08:50:21;77.43;;;38.72;;
24008;SDS011;12217;50.792;4.372;2023-11-21T08:52:46;72.78;;;39.33;;
24008;SDS011;12217;50.792;4.372;2023-11-21T08:55:12;70.25;;;37.72;;
24008;SDS011;12217;50.792;4.372;2023-11-21T08:57:39;82.68;;;40.25;;
24008;SDS011;12217;50.792;4.372;2023-11-21T09:00:06;80.53;;;38.95;;
24008;SDS011;12217;50.792;4.372;2023-11-21T09:02:40;86.15;;;40.33;;
24008;SDS011;12217;50.792;4.372;2023-11-21T09:05:07;109.85;;;64.53;;
24008;SDS011;12217;50.792;4.372;2023-11-21T09:07:34;87.35;;;40.30;;
24008;SDS011;12217;50.792;4.372;2023-11-21T09:10:00;74.88;;;39.08;;
24008;SDS011;12217;50.792;4.372;2023-11-21T09:12:27;94.35;;;42.20;;
24008;SDS011;12217;50.792;4.372;2023-11-21T09:14:52;86.40;;;40.85;;
24008;SDS011;12217;50.792;4.372;2023-11-21T09:17:18;85.47;;;41.60;;
24008;SDS011;12217;50.792;4.372;2023-11-21T09:19:44;85.68;;;40.17;;
24008;SDS011;12217;50.792;4.372;2023-11-21T09:22:14;83.15;;;40.42;;
24008;SDS011;12217;50.792;4.372;2023-11-21T09:24:40;107.32;;;41.25;;
24008;SDS011;12217;50.792;4.372;2023-11-21T09:27:06;82.43;;;43.55;;
24008;SDS011;12217;50.792;4.372;2023-11-21T09:29:31;103.15;;;41.28;;
24008;SDS011;12217;50.792;4.372;2023-11-21T09:31:57;74.88;;;40.78;;
24008;SDS011;12217;50.792;4.372;2023-11-21T09:34:24;104.05;;;42.33;;
24008;SDS011;12217;50.792;4.372;2023-11-21T09:36:50;90.25;;;43.85;;
24008;SDS011;12217;50.792;4.372;2023-11-21T09:39:16;81.80;;;42.10;;
24008;SDS011;12217;50.792;4.372;2023-11-21T09:41:59;93.28;;;43.47;;
24008;SDS011;12217;50.792;4.372;2023-11-21T09:44:45;86.53;;;40.22;;
24008;SDS011;12217;50.792;4.372;2023-11-21T09:47:30;81.45;;;40.92;;
24008;SDS011;12217;50.792;4.372;2023-11-21T09:50:01;98.80;;;39.10;;
24008;SDS011;12217;50.792;4.372;2023-11-21T09:52:27;116.65;;;40.63;;
24008;SDS011;12217;50.792;4.372;2023-11-21T09:54:54;86.55;;;41.13;;
24008;SDS011;12217;50.792;4.372;2023-11-21T09:57:23;79.10;;;40.03;;
24008;SDS011;12217;50.792;4.372;2023-11-21T09:59:53;78.53;;;39.08;;
24008;SDS011;12217;50.792;4.372;2023-11-21T10:02:24;72.78;;;38.38;;
24008;SDS011;12217;50.792;4.372;2023-11-21T10:04:53;73.15;;;36.92;;
24008;SDS011;12217;50.792;4.372;2023-11-21T10:07:20;66.10;;;37.70;;
24008;SDS011;12217;50.792;4.372;2023-11-21T10:09:46;74.00;;;38.42;;
24008;SDS011;12217;50.792;4.372;2023-11-21T10:12:13;71.95;;;37.88;;
24008;SDS011;12217;50.792;4.372;2023-11-21T10:14:41;74.25;;;37.88;;
24008;SDS011;12217;50.792;4.372;2023-11-21T10:17:09;71.18;;;39.45;;
24008;SDS011;12217;50.792;4.372;2023-11-21T10:19:37;69.43;;;38.38;;
24008;SDS011;12217;50.792;4.372;2023-11-21T10:22:04;75.03;;;39.00;;
24008;SDS011;12217;50.792;4.372;2023-11-21T10:24:32;75.03;;;37.95;;
24008;SDS011;12217;50.792;4.372;2023-11-21T10:26:58;78.20;;;38.03;;
24008;SDS011;12217;50.792;4.372;2023-11-21T10:29:24;72.60;;;38.10;;
24008;SDS011;12217;50.792;4.372;2023-11-21T10:31:54;75.57;;;40.10;;
24008;SDS011;12217;50.792;4.372;2023-11-21T10:34:22;83.03;;;39.60;;
24008;SDS011;12217;50.792;4.372;2023-11-21T10:36:48;65.53;;;36.65;;
24008;SDS011;12217;50.792;4.372;2023-11-21T10:39:14;75.57;;;38.38;;
24008;SDS011;12217;50.792;4.372;2023-11-21T10:41:47;65.00;;;34.72;;
24008;SDS011;12217;50.792;4.372;2023-11-21T10:44:13;44.58;;;27.90;;
24008;SDS011;12217;50.792;4.372;2023-11-21T10:46:45;40.35;;;26.30;;
24008;SDS011;12217;50.792;4.372;2023-11-21T10:49:15;35.67;;;24.58;;
24008;SDS011;12217;50.792;4.372;2023-11-21T10:51:50;34.28;;;24.67;;
24008;SDS011;12217;50.792;4.372;2023-11-21T10:54:20;31.33;;;21.45;;
24008;SDS011;12217;50.792;4.372;2023-11-21T10:56:51;32.65;;;22.48;;
24008;SDS011;12217;50.792;4.372;2023-11-21T10:59:22;32.33;;;22.83;;
24008;SDS011;12217;50.792;4.372;2023-11-21T11:01:50;33.42;;;23.52;;
24008;SDS011;12217;50.792;4.372;2023-11-21T11:04:18;32.67;;;23.33;;
24008;SDS011;12217;50.792;4.372;2023-11-21T11:06:44;32.47;;;22.98;;
24008;SDS011;12217;50.792;4.372;2023-11-21T11:09:16;34.22;;;24.23;;
24008;SDS011;12217;50.792;4.372;2023-11-21T11:11:42;35.08;;;23.80;;
24008;SDS011;12217;50.792;4.372;2023-11-21T11:14:12;37.80;;;25.23;;
24008;SDS011;12217;50.792;4.372;2023-11-21T11:16:38;32.97;;;24.10;;
24008;SDS011;12217;50.792;4.372;2023-11-21T11:19:11;36.45;;;24.90;;
24008;SDS011;12217;50.792;4.372;2023-11-21T11:31:00;42.95;;;28.17;;
24008;SDS011;12217;50.792;4.372;2023-11-21T11:33:23;45.63;;;28.45;;
24008;SDS011;12217;50.792;4.372;2023-11-21T11:38:47;45.67;;;28.90;;
24008;SDS011;12217;50.792;4.372;2023-11-21T11:41:24;43.80;;;29.58;;
24008;SDS011;12217;50.792;4.372;2023-11-21T11:43:52;43.53;;;28.55;;
24008;SDS011;12217;50.792;4.372;2023-11-21T11:46:18;47.08;;;30.80;;
24008;SDS011;12217;50.792;4.372;2023-11-21T11:48:46;48.10;;;30.58;;
24008;SDS011;12217;50.792;4.372;2023-11-21T11:51:13;47.88;;;32.47;;
24008;SDS011;12217;50.792;4.372;2023-11-21T11:53:42;52.72;;;33.13;;
24008;SDS011;12217;50.792;4.372;2023-11-21T11:58:56;53.80;;;34.30;;
24008;SDS011;12217;50.792;4.372;2023-11-21T12:01:24;51.40;;;34.25;;
24008;SDS011;12217;50.792;4.372;2023-11-21T12:07:04;45.38;;;31.02;;
24008;SDS011;12217;50.792;4.372;2023-11-21T12:09:31;39.45;;;31.35;;
24008;SDS011;12217;50.792;4.372;2023-11-21T12:11:57;36.15;;;28.13;;
24008;SDS011;12217;50.792;4.372;2023-11-21T12:14:22;33.70;;;26.92;;
24008;SDS011;12217;50.792;4.372;2023-11-21T12:16:48;35.20;;;26.23;;
24008;SDS011;12217;50.792;4.372;2023-11-21T12:19:14;34.25;;;25.48;;
24008;SDS011;12217;50.792;4.372;2023-11-21T12:21:40;29.50;;;21.88;;
24008;SDS011;12217;50.792;4.372;2023-11-21T12:24:06;26.60;;;22.20;;
24008;SDS011;12217;50.792;4.372;2023-11-21T12:26:38;24.38;;;20.85;;
24008;SDS011;12217;50.792;4.372;2023-11-21T12:29:04;20.63;;;17.17;;
24008;SDS011;12217;50.792;4.372;2023-11-21T12:31:32;21.98;;;17.60;;
24008;SDS011;12217;50.792;4.372;2023-11-21T12:33:59;19.25;;;16.98;;
24008;SDS011;12217;50.792;4.372;2023-11-21T12:36:25;22.38;;;17.40;;
24008;SDS011;12217;50.792;4.372;2023-11-21T12:38:51;19.90;;;17.70;;
24008;SDS011;12217;50.792;4.372;2023-11-21T12:41:17;22.00;;;18.00;;
24008;SDS011;12217;50.792;4.372;2023-11-21T12:43:43;20.20;;;17.98;;
24008;SDS011;12217;50.792;4.372;2023-11-21T12:46:12;23.33;;;17.70;;
24008;SDS011;12217;50.792;4.372;2023-11-21T12:48:43;19.70;;;17.13;;
24008;SDS011;12217;50.792;4.372;2023-11-21T12:51:11;218.52;;;179.68;;
24008;SDS011;12217;50.792;4.372;2023-11-21T12:53:40;42.72;;;33.10;;
24008;SDS011;12217;50.792;4.372;2023-11-21T12:56:09;24.60;;;20.15;;
24008;SDS011;12217;50.792;4.372;2023-11-21T12:58:36;23.33;;;18.83;;
24008;SDS011;12217;50.792;4.372;2023-11-21T13:01:04;21.95;;;18.33;;
24008;SDS011;12217;50.792;4.372;2023-11-21T13:03:34;23.92;;;17.92;;
24008;SDS011;12217;50.792;4.372;2023-11-21T13:06:01;21.83;;;18.23;;
24008;SDS011;12217;50.792;4.372;2023-11-21T13:08:27;23.00;;;17.20;;
24008;SDS011;12217;50.792;4.372;2023-11-21T13:10:55;21.45;;;14.98;;
24008;SDS011;12217;50.792;4.372;2023-11-21T13:13:21;19.08;;;14.65;;
24008;SDS011;12217;50.792;4.372;2023-11-21T13:15:50;16.75;;;14.43;;
24008;SDS011;12217;50.792;4.372;2023-11-21T13:18:17;22.20;;;15.35;;
24008;SDS011;12217;50.792;4.372;2023-11-21T13:20:43;22.08;;;15.38;;
24008;SDS011;12217;50.792;4.372;2023-11-21T13:23:11;21.35;;;14.35;;
24008;SDS011;12217;50.792;4.372;2023-11-21T13:25:37;20.67;;;15.45;;
24008;SDS011;12217;50.792;4.372;2023-11-21T13:28:06;20.55;;;15.32;;
24008;SDS011;12217;50.792;4.372;2023-11-21T13:30:32;17.25;;;14.68;;
24008;SDS011;12217;50.792;4.372;2023-11-21T13:33:03;24.05;;;15.82;;
24008;SDS011;12217;50.792;4.372;2023-11-21T13:35:33;20.02;;;16.05;;
24008;SDS011;12217;50.792;4.372;2023-11-21T13:38:06;18.73;;;16.38;;
24008;SDS011;12217;50.792;4.372;2023-11-21T13:40:37;18.85;;;15.65;;
24008;SDS011;12217;50.792;4.372;2023-11-21T13:43:12;18.40;;;16.17;;
24008;SDS011;12217;50.792;4.372;2023-11-21T13:45:39;20.85;;;16.80;;
24008;SDS011;12217;50.792;4.372;2023-11-21T13:48:05;25.77;;;17.95;;
24008;SDS011;12217;50.792;4.372;2023-11-21T13:50:35;19.80;;;17.70;;
24008;SDS011;12217;50.792;4.372;2023-11-21T13:53:02;22.98;;;17.65;;
24008;SDS011;12217;50.792;4.372;2023-11-21T13:55:35;19.95;;;17.85;;
24008;SDS011;12217;50.792;4.372;2023-11-21T13:58:02;21.08;;;18.27;;
24008;SDS011;12217;50.792;4.372;2023-11-21T14:00:29;19.48;;;17.35;;
24008;SDS011;12217;50.792;4.372;2023-11-21T14:03:10;21.60;;;18.42;;
24008;SDS011;12217;50.792;4.372;2023-11-21T14:05:46;21.35;;;17.50;;
24008;SDS011;12217;50.792;4.372;2023-11-21T14:08:16;20.63;;;17.05;;
24008;SDS011;12217;50.792;4.372;2023-11-21T14:10:46;18.33;;;15.98;;
24008;SDS011;12217;50.792;4.372;2023-11-21T14:13:25;16.52;;;14.85;;
24008;SDS011;12217;50.792;4.372;2023-11-21T14:15:52;19.23;;;15.68;;
24008;SDS011;12217;50.792;4.372;2023-11-21T14:18:24;15.52;;;13.88;;
24008;SDS011;12217;50.792;4.372;2023-11-21T14:20:59;16.90;;;13.05;;
24008;SDS011;12217;50.792;4.372;2023-11-21T14:23:25;13.68;;;11.50;;
24008;SDS011;12217;50.792;4.372;2023-11-21T14:25:50;14.15;;;12.85;;
24008;SDS011;12217;50.792;4.372;2023-11-21T14:28:16;14.57;;;13.07;;
24008;SDS011;12217;50.792;4.372;2023-11-21T14:30:44;12.05;;;10.07;;
24008;SDS011;12217;50.792;4.372;2023-11-21T14:33:11;9.57;;;8.65;;
24008;SDS011;12217;50.792;4.372;2023-11-21T14:35:37;9.38;;;8.38;;
24008;SDS011;12217;50.792;4.372;2023-11-21T14:38:03;9.23;;;8.18;;
24008;SDS011;12217;50.792;4.372;2023-11-21T14:40:33;10.07;;;9.02;;